createdAt,value
2022-07-27T01:24:22.738Z,95.11
2022-07-27T05:37:50.041Z,86.63
2022-07-27T05:38:50.020Z,85.76
2022-07-27T05:39:50.001Z,87.34
2022-07-27T05:40:49.989Z,86.07
2022-07-27T05:41:49.993Z,86.13
2022-07-27T05:42:49.995Z,86.22
2022-07-27T05:43:49.962Z,85.52
2022-07-27T05:44:49.949Z,86.02
2022-07-27T05:45:49.996Z,86.93
2022-07-27T05:46:49.933Z,85.31
2022-07-27T05:47:49.928Z,85.48
2022-07-27T05:48:49.988Z,84.87
2022-07-27T05:49:49.892Z,86.19
2022-07-27T05:50:49.884Z,85.17
2022-07-27T05:51:49.874Z,85.78
2022-07-27T05:52:49.869Z,86.04
2022-07-27T05:53:49.851Z,84.53
2022-07-27T05:54:49.842Z,83.52
2022-07-27T05:55:58.023Z,84.83
2022-07-27T05:56:50.816Z,84.69
2022-07-27T05:57:49.820Z,85.80
2022-07-27T05:58:49.795Z,83.32
2022-07-27T05:59:49.791Z,84.39
2022-07-27T06:00:49.782Z,84.89
2022-07-27T06:01:49.765Z,85.86
2022-07-27T06:02:49.767Z,83.95
2022-07-27T06:03:49.847Z,81.82
2022-07-27T06:04:49.732Z,81.68
2022-07-27T06:05:49.728Z,81.18
2022-07-27T06:06:49.714Z,78.46
2022-07-27T06:07:50.026Z,79.00
2022-07-27T06:08:49.694Z,79.67
2022-07-27T06:09:49.691Z,82.90
2022-07-27T06:10:49.672Z,80.88
2022-07-27T06:11:49.682Z,78.46
2022-07-27T06:12:49.674Z,78.63
2022-07-27T06:13:49.655Z,76.20
2022-07-27T06:14:50.804Z,78.86
2022-07-27T06:15:49.628Z,75.90
2022-07-27T06:16:49.691Z,75.94
2022-07-27T06:17:49.630Z,77.01
2022-07-27T06:18:49.591Z,77.01
2022-07-27T06:19:49.576Z,76.10
2022-07-27T06:20:49.582Z,75.03
2022-07-27T06:21:53.614Z,78.83
2022-07-27T06:22:49.584Z,77.42
2022-07-27T06:23:49.537Z,79.13
2022-07-27T06:24:49.523Z,77.11
2022-07-27T06:25:49.511Z,75.96
2022-07-27T06:26:49.494Z,74.76
2022-07-27T06:27:49.502Z,77.04
2022-07-27T06:28:49.475Z,77.24
2022-07-27T06:29:49.470Z,76.70
2022-07-27T06:30:49.456Z,74.12
2022-07-27T06:31:49.525Z,72.91
2022-07-27T06:32:49.459Z,73.52
2022-07-27T06:33:50.950Z,73.48
2022-07-27T06:34:49.427Z,73.72
2022-07-27T06:35:49.412Z,72.47
2022-07-27T06:36:49.403Z,72.37
2022-07-27T06:37:49.407Z,72.47
2022-07-27T06:38:49.374Z,70.46
2022-07-27T06:39:49.373Z,72.20
2022-07-27T06:40:49.357Z,74.49
2022-07-27T06:41:49.343Z,73.58
2022-07-27T06:42:49.346Z,71.67
2022-07-27T06:43:49.327Z,71.16
2022-07-27T06:44:49.307Z,72.47
2022-07-27T06:45:49.309Z,71.26
2022-07-27T06:46:49.345Z,71.97
2022-07-27T06:47:50.131Z,70.16
2022-07-27T06:48:49.319Z,68.55
2022-07-27T06:49:49.266Z,69.09
2022-07-27T06:50:49.251Z,71.67
2022-07-27T06:51:49.241Z,71.30
2022-07-27T06:52:49.242Z,68.98
2022-07-27T06:53:49.222Z,71.67
2022-07-27T06:54:49.221Z,70.66
2022-07-27T06:55:49.218Z,68.15
2022-07-27T06:56:49.190Z,69.15
2022-07-27T06:57:49.195Z,70.46
2022-07-27T06:58:49.177Z,69.15
2022-07-27T06:59:49.157Z,71.26
2022-07-27T07:00:49.210Z,72.97
2022-07-27T07:01:49.272Z,71.06
2022-07-27T07:02:49.143Z,70.76
2022-07-27T07:03:49.206Z,70.36
2022-07-27T07:04:49.104Z,70.86
2022-07-27T07:05:49.096Z,70.56
2022-07-27T07:06:49.100Z,69.56
2022-07-27T07:07:49.090Z,70.96
2022-07-27T07:08:49.061Z,69.82
2022-07-27T07:09:49.058Z,69.15
2022-07-27T07:10:49.043Z,70.76
2022-07-27T07:11:49.038Z,68.35
2022-07-27T07:12:49.037Z,68.85
2022-07-27T07:13:49.017Z,69.85
2022-07-27T07:14:49.010Z,69.45
2022-07-27T07:15:49.060Z,68.85
2022-07-27T07:16:49.101Z,69.65
2022-07-27T07:17:48.986Z,70.46
2022-07-27T07:18:52.261Z,69.12
2022-07-27T07:19:48.974Z,68.85
2022-07-27T07:20:48.943Z,68.88
2022-07-27T07:21:48.942Z,69.05
2022-07-27T07:22:48.937Z,68.85
2022-07-27T07:23:48.911Z,67.68
2022-07-27T07:24:48.903Z,69.05
2022-07-27T07:25:48.893Z,68.95
2022-07-27T07:26:48.883Z,71.16
2022-07-27T07:27:48.886Z,70.86
2022-07-27T07:28:48.864Z,67.51
2022-07-27T07:29:48.852Z,67.21
2022-07-27T07:30:48.837Z,66.30
2022-07-27T07:31:48.887Z,66.91
2022-07-27T07:32:48.855Z,67.61
2022-07-27T07:33:48.807Z,68.88
2022-07-27T07:34:48.793Z,64.36
2022-07-27T07:36:12.086Z,64.96
2022-07-27T07:36:49.785Z,66.77
2022-07-27T07:37:50.475Z,65.26
2022-07-27T07:38:48.769Z,65.97
2022-07-27T07:39:48.749Z,67.65
2022-07-27T07:40:48.744Z,67.55
2022-07-27T07:41:48.730Z,64.63
2022-07-27T07:42:48.713Z,65.10
2022-07-27T07:43:48.723Z,67.01
2022-07-27T07:44:48.690Z,63.26
2022-07-27T07:45:50.598Z,63.09
2022-07-27T07:46:48.745Z,61.88
2022-07-27T07:47:48.668Z,63.82
2022-07-27T07:48:48.743Z,65.64
2022-07-27T07:49:48.688Z,64.30
2022-07-27T07:50:52.074Z,63.29
2022-07-27T07:51:48.620Z,61.79
2022-07-27T07:52:48.609Z,63.19
2022-07-27T07:53:48.614Z,64.97
2022-07-27T07:54:48.588Z,64.87
2022-07-27T07:55:48.591Z,66.08
2022-07-27T07:56:48.571Z,59.55
2022-07-27T07:57:48.562Z,62.16
2022-07-27T07:58:48.560Z,61.05
2022-07-27T07:59:48.540Z,61.25
2022-07-27T08:00:48.536Z,63.17
2022-07-27T08:01:48.581Z,63.23
2022-07-27T08:02:48.562Z,65.41
2022-07-27T08:03:50.989Z,59.56
2022-07-27T08:04:48.486Z,58.66
2022-07-27T08:05:48.479Z,60.27
2022-07-27T08:06:48.460Z,58.46
2022-07-27T08:07:48.454Z,61.54
2022-07-27T08:08:48.458Z,59.83
2022-07-27T08:09:48.441Z,60.06
2022-07-27T08:10:48.421Z,61.94
2022-07-27T08:11:48.416Z,61.14
2022-07-27T08:12:48.401Z,61.34
2022-07-27T08:13:49.562Z,58.53
2022-07-27T08:14:49.533Z,58.40
2022-07-27T08:15:49.568Z,60.98
2022-07-27T08:16:49.534Z,56.27
2022-07-27T08:17:49.546Z,58.92
2022-07-27T08:18:49.546Z,58.72
2022-07-27T08:19:49.550Z,57.87
2022-07-27T08:20:49.531Z,57.17
2022-07-27T08:21:50.920Z,54.29
2022-07-27T08:22:49.483Z,55.57
2022-07-27T08:23:49.497Z,56.59
2022-07-27T08:24:49.443Z,54.42
2022-07-27T08:25:49.435Z,57.22
2022-07-27T08:26:49.441Z,54.55
2022-07-27T08:27:50.080Z,57.75
2022-07-27T08:28:49.398Z,55.47
2022-07-27T08:29:51.731Z,57.78
2022-07-27T08:30:49.572Z,56.15
2022-07-27T08:31:52.253Z,54.97
2022-07-27T08:32:49.369Z,58.55
2022-07-27T08:33:49.410Z,56.02
2022-07-27T08:34:49.358Z,57.69
2022-07-27T08:35:49.339Z,52.19
2022-07-27T08:36:49.354Z,54.74
2022-07-27T08:37:49.314Z,55.81
2022-07-27T08:38:49.303Z,52.59
2022-07-27T08:40:51.293Z,52.22
2022-07-27T08:41:49.271Z,54.24
2022-07-27T08:42:49.371Z,58.04
2022-07-27T08:43:49.270Z,53.94
2022-07-27T08:44:49.242Z,53.27
2022-07-27T08:45:49.244Z,55.47
2022-07-27T08:46:49.297Z,56.27
2022-07-27T08:47:49.234Z,55.44
2022-07-27T08:48:49.263Z,56.01
2022-07-27T08:49:49.851Z,55.71
2022-07-27T08:50:50.208Z,55.41
2022-07-27T08:51:49.180Z,56.18
2022-07-27T08:52:49.164Z,55.29
2022-07-27T08:53:53.023Z,56.29
2022-07-27T08:54:49.157Z,57.18
2022-07-27T08:55:49.123Z,54.59
2022-07-27T08:56:49.125Z,54.41
2022-07-27T08:57:49.152Z,54.52
2022-07-27T08:58:49.114Z,53.04
2022-07-27T08:59:49.121Z,53.17
2022-07-27T09:00:49.079Z,54.49
2022-07-27T09:01:49.162Z,56.70
2022-07-27T09:02:49.164Z,57.12
2022-07-27T09:03:49.236Z,56.32
2022-07-27T09:04:49.072Z,56.52
2022-07-27T09:05:49.042Z,57.19
2022-07-27T09:06:53.366Z,55.99
2022-07-27T09:07:50.023Z,54.72
2022-07-27T09:08:53.209Z,57.92
2022-07-27T09:09:49.987Z,58.02
2022-07-27T09:10:48.975Z,58.86
2022-07-27T09:11:48.968Z,54.04
2022-07-27T09:12:48.955Z,56.41
2022-07-27T09:13:48.950Z,55.71
2022-07-27T09:14:53.036Z,54.19
2022-07-27T09:16:16.278Z,50.47
2022-07-27T09:17:46.045Z,49.90
2022-07-27T09:17:50.986Z,52.99
2022-07-27T09:18:49.878Z,52.25
2022-07-27T09:19:48.899Z,54.31
2022-07-27T09:20:48.904Z,49.70
2022-07-27T09:21:48.892Z,49.35
2022-07-27T09:22:48.917Z,51.22
2022-07-27T09:23:48.858Z,50.82
2022-07-27T09:24:48.876Z,50.50
2022-07-27T09:26:10.000Z,51.72
2022-07-27T09:26:50.862Z,54.28
2022-07-27T09:27:48.831Z,50.98
2022-07-27T09:28:48.841Z,50.68
2022-07-27T09:29:48.826Z,49.70
2022-07-27T09:30:48.845Z,50.13
2022-07-27T09:31:48.849Z,51.05
2022-07-27T09:32:52.740Z,49.27
2022-07-27T09:33:49.784Z,53.17
2022-07-27T09:34:48.780Z,54.57
2022-07-27T09:35:48.766Z,52.69
2022-07-27T09:36:48.736Z,53.89
2022-07-27T09:37:48.740Z,53.99
2022-07-27T09:38:54.242Z,52.69
2022-07-27T09:39:50.785Z,52.79
2022-07-27T09:41:03.567Z,54.53
2022-07-27T09:41:49.941Z,52.32
2022-07-27T09:43:08.865Z,52.62
2022-07-27T09:44:30.508Z,51.72
2022-07-27T09:44:53.873Z,49.43
2022-07-27T09:45:51.519Z,51.27
2022-07-27T09:46:48.759Z,52.62
2022-07-27T09:47:48.657Z,48.11
2022-07-27T09:48:48.775Z,48.91
2022-07-27T09:49:48.598Z,46.60
2022-07-27T09:51:01.551Z,47.67
2022-07-27T09:52:05.859Z,48.25
2022-07-27T09:52:50.619Z,49.99
2022-07-27T09:53:48.736Z,46.64
2022-07-27T09:54:50.409Z,48.27
2022-07-27T09:55:48.566Z,47.58
2022-07-27T09:56:48.572Z,42.52
2022-07-27T09:57:48.549Z,42.66
2022-07-27T09:58:48.591Z,46.16
2022-07-27T09:59:48.552Z,45.07
2022-07-27T10:00:48.558Z,44.57
2022-07-27T10:01:54.340Z,44.59
2022-07-27T10:02:50.513Z,47.87
2022-07-27T10:03:48.511Z,48.79
2022-07-27T10:04:48.536Z,44.04
2022-07-27T10:05:48.496Z,46.25
2022-07-27T10:07:02.126Z,51.03
2022-07-27T10:07:50.494Z,50.43
2022-07-27T10:08:48.436Z,46.27
2022-07-27T10:09:48.429Z,48.50
2022-07-27T10:10:48.415Z,49.40
2022-07-27T10:11:48.423Z,49.53
2022-07-27T10:12:54.013Z,49.08
2022-07-27T10:13:50.386Z,49.75
2022-07-27T10:14:48.376Z,48.78
2022-07-27T10:15:48.459Z,50.47
2022-07-27T10:16:48.363Z,50.17
2022-07-27T10:17:48.343Z,50.37
2022-07-27T10:18:55.976Z,50.67
2022-07-27T10:19:49.328Z,50.77
2022-07-27T10:20:48.319Z,50.27
2022-07-27T10:21:48.297Z,51.35
2022-07-27T10:22:48.287Z,49.13
2022-07-27T10:23:48.312Z,48.80
2022-07-27T10:24:53.064Z,48.76
2022-07-27T10:25:49.713Z,48.32
2022-07-27T10:26:48.280Z,45.98
2022-07-27T10:29:59.443Z,45.56
2022-07-27T10:30:04.478Z,44.11
2022-07-27T10:31:01.832Z,41.85
2022-07-27T10:32:01.786Z,42.01
2022-07-27T10:33:01.866Z,46.68
2022-07-27T10:34:01.773Z,45.39
2022-07-27T10:35:01.791Z,46.38
2022-07-27T10:36:01.792Z,44.70
2022-07-27T10:37:01.793Z,42.94
2022-07-27T10:38:01.767Z,47.14
2022-07-27T10:39:01.745Z,46.83
2022-07-27T10:40:01.725Z,47.89
2022-07-27T10:41:01.709Z,48.77
2022-07-27T10:42:01.697Z,43.52
2022-07-27T10:43:01.679Z,43.72
2022-07-27T10:44:01.682Z,47.30
2022-07-27T10:45:01.644Z,46.11
2022-07-27T10:46:02.994Z,47.82
2022-07-27T10:47:01.638Z,42.86
2022-07-27T10:48:01.650Z,47.34
2022-07-27T10:49:01.666Z,48.64
2022-07-27T10:50:01.612Z,45.26
2022-07-27T10:51:01.658Z,45.15
2022-07-27T10:52:01.959Z,45.90
2022-07-27T10:53:01.563Z,43.48
2022-07-27T10:54:16.788Z,45.74
2022-07-27T10:55:03.717Z,42.85
2022-07-27T10:56:01.583Z,45.30
2022-07-27T10:57:01.557Z,41.24
2022-07-27T10:58:01.541Z,40.34
2022-07-27T10:59:01.514Z,41.75
2022-07-27T11:00:12.426Z,40.44
2022-07-27T11:01:03.558Z,39.97
2022-07-27T11:02:01.518Z,40.01
2022-07-27T11:03:01.489Z,42.58
2022-07-27T11:04:01.566Z,43.16
2022-07-27T11:05:01.475Z,40.01
2022-07-27T11:06:26.186Z,41.14
2022-07-27T11:10:05.009Z,46.75
2022-07-27T11:11:02.442Z,42.69
2022-07-27T11:12:01.392Z,45.95
2022-07-27T11:13:09.833Z,43.29
2022-07-27T11:14:03.382Z,46.97
2022-07-27T11:15:01.362Z,47.96
2022-07-27T11:16:22.792Z,48.04
2022-07-27T11:17:32.218Z,42.97
2022-07-27T11:18:05.156Z,45.26
2022-07-27T11:19:03.237Z,43.86
2022-07-27T11:20:01.370Z,44.88
2022-07-27T11:21:04.751Z,44.66
2022-07-27T11:22:04.638Z,45.15
2022-07-27T11:24:04.952Z,40.50
2022-07-27T11:25:01.297Z,42.61
2022-07-27T11:26:01.279Z,43.41
2022-07-27T11:27:01.275Z,43.41
2022-07-27T11:28:02.268Z,42.09
2022-07-27T11:29:01.285Z,43.49
2022-07-27T11:30:01.266Z,43.66
2022-07-27T11:31:03.579Z,46.95
2022-07-27T11:32:02.333Z,46.03
2022-07-27T11:33:01.244Z,44.71
2022-07-27T11:34:01.220Z,41.85
2022-07-27T11:35:01.197Z,42.07
2022-07-27T11:36:01.217Z,45.63
2022-07-27T11:37:01.173Z,47.92
2022-07-27T11:38:01.188Z,43.54
2022-07-27T11:39:01.192Z,42.07
2022-07-27T11:40:03.214Z,44.85
2022-07-27T11:41:15.178Z,44.74
2022-07-27T11:42:11.689Z,42.05
2022-07-27T11:43:03.139Z,46.42
2022-07-27T11:44:01.084Z,47.08
2022-07-27T11:45:01.102Z,42.39
2022-07-27T11:46:01.152Z,46.56
2022-07-27T11:47:02.129Z,44.18
2022-07-27T11:48:02.095Z,43.78
2022-07-27T11:49:18.001Z,39.81
2022-07-27T11:50:03.163Z,42.09
2022-07-27T11:51:01.107Z,40.50
2022-07-27T11:52:01.037Z,40.72
2022-07-27T11:53:01.950Z,39.97
2022-07-27T11:54:02.071Z,42.85
2022-07-27T11:55:00.996Z,40.98
2022-07-27T11:56:00.999Z,44.16
2022-07-27T11:57:00.965Z,43.76
2022-07-27T11:58:00.957Z,42.47
2022-07-27T11:59:08.786Z,43.86
2022-07-27T12:00:01.951Z,44.54
2022-07-27T12:01:00.986Z,45.43
2022-07-27T12:02:01.767Z,43.24
2022-07-27T12:03:08.174Z,44.44
2022-07-27T12:04:05.068Z,42.94
2022-07-27T12:05:20.954Z,45.53
2022-07-27T12:06:03.823Z,46.62
2022-07-27T12:07:00.888Z,45.21
2022-07-27T12:08:07.830Z,42.41
2022-07-27T12:09:02.009Z,40.42
2022-07-27T12:10:00.837Z,44.29
2022-07-27T12:11:01.897Z,43.70
2022-07-27T12:12:00.887Z,44.87
2022-07-27T12:13:01.883Z,41.87
2022-07-27T12:14:00.808Z,39.61
2022-07-27T12:15:45.817Z,40.22
2022-07-27T12:16:03.740Z,40.44
2022-07-27T12:17:00.818Z,41.63
2022-07-27T12:18:00.788Z,39.83
2022-07-27T12:19:00.761Z,41.02
2022-07-27T12:20:00.760Z,41.74
2022-07-27T12:21:00.760Z,41.14
2022-07-27T12:22:00.744Z,40.54
2022-07-27T12:23:00.722Z,39.75
2022-07-27T12:24:00.734Z,44.99
2022-07-27T12:25:00.743Z,45.27
2022-07-27T12:26:00.687Z,41.39
2022-07-27T12:27:06.737Z,41.58
2022-07-27T12:28:01.661Z,40.20
2022-07-27T12:29:00.724Z,42.58
2022-07-27T12:30:00.648Z,40.50
2022-07-27T12:31:00.740Z,39.92
2022-07-27T12:32:00.676Z,43.88
2022-07-27T12:33:00.664Z,42.29
2022-07-27T12:34:06.178Z,42.58
2022-07-27T12:35:02.649Z,42.01
2022-07-27T12:36:00.671Z,39.95
2022-07-27T12:37:00.672Z,42.85
2022-07-27T12:38:00.597Z,40.56
2022-07-27T12:39:00.630Z,42.94
2022-07-27T12:40:00.555Z,40.36
2022-07-27T12:41:01.346Z,45.14
2022-07-27T12:42:01.637Z,42.47
2022-07-27T12:43:00.517Z,42.69
2022-07-27T12:44:00.536Z,44.68
2022-07-27T12:45:00.573Z,43.27
2022-07-27T12:46:00.650Z,45.65
2022-07-27T12:47:00.504Z,42.39
2022-07-27T12:48:00.484Z,45.18
2022-07-27T12:49:00.554Z,43.79
2022-07-27T12:50:00.451Z,44.96
2022-07-27T12:51:00.453Z,42.37
2022-07-27T12:52:00.457Z,45.08
2022-07-27T12:53:00.410Z,46.17
2022-07-27T12:54:00.435Z,46.75
2022-07-27T12:55:00.413Z,45.06
2022-07-27T12:56:00.404Z,45.14
2022-07-27T12:57:00.388Z,45.03
2022-07-27T12:58:00.349Z,44.59
2022-07-27T12:59:00.369Z,40.68
2022-07-27T13:00:00.343Z,45.00
2022-07-27T13:01:00.405Z,44.64
2022-07-27T13:02:00.628Z,41.33
2022-07-27T13:03:00.392Z,42.90
2022-07-27T13:04:00.323Z,40.66
2022-07-27T13:05:01.259Z,37.49
2022-07-27T13:06:00.286Z,37.41
2022-07-27T13:07:00.315Z,38.90
2022-07-27T13:08:00.316Z,39.20
2022-07-27T13:09:00.257Z,36.95
2022-07-27T13:10:03.066Z,39.12
2022-07-27T13:11:01.976Z,37.46
2022-07-27T13:12:00.477Z,38.86
2022-07-27T13:13:00.344Z,39.28
2022-07-27T13:14:00.266Z,37.83
2022-07-27T13:15:00.304Z,39.93
2022-07-27T13:16:00.338Z,38.94
2022-07-27T13:17:01.393Z,41.61
2022-07-27T13:18:00.250Z,39.43
2022-07-27T13:19:05.210Z,41.81
2022-07-27T13:20:02.171Z,39.91
2022-07-27T13:21:00.160Z,40.07
2022-07-27T13:22:00.260Z,39.73
2022-07-27T13:23:00.247Z,40.01
2022-07-27T13:24:00.360Z,39.22
2022-07-27T13:25:00.140Z,38.35
2022-07-27T13:26:00.179Z,39.43
2022-07-27T13:27:00.821Z,38.82
2022-07-27T13:28:00.341Z,39.42
2022-07-27T13:29:00.142Z,37.15
2022-07-27T13:30:04.872Z,38.35
2022-07-27T13:31:00.093Z,38.76
2022-07-27T13:32:43.650Z,39.37
2022-07-27T13:33:02.069Z,38.01
2022-07-27T13:34:00.056Z,40.90
2022-07-27T13:35:08.488Z,42.57
2022-07-27T13:36:00.908Z,39.18
2022-07-27T13:37:00.050Z,40.76
2022-07-27T13:38:00.084Z,39.37
2022-07-27T13:39:00.061Z,42.43
2022-07-27T13:40:00.054Z,41.81
2022-07-27T13:41:00.055Z,37.16
2022-07-27T13:42:00.035Z,38.59
2022-07-27T13:43:00.634Z,38.42
2022-07-27T13:44:00.026Z,39.42
2022-07-27T13:45:07.970Z,40.41
2022-07-27T13:46:02.084Z,40.20
2022-07-27T13:46:59.960Z,42.76
2022-07-27T13:47:59.979Z,42.05
2022-07-27T13:49:00.061Z,39.16
2022-07-27T13:49:59.953Z,39.46
2022-07-27T13:50:59.913Z,37.99
2022-07-27T13:51:59.923Z,38.78
2022-07-27T13:52:59.925Z,38.90
2022-07-27T13:53:59.890Z,36.94
2022-07-27T13:54:59.866Z,40.23
2022-07-27T13:55:59.881Z,37.96
2022-07-27T13:56:59.835Z,39.00
2022-07-27T13:57:59.935Z,41.79
2022-07-27T13:58:59.871Z,40.98
2022-07-27T13:59:59.905Z,39.35
2022-07-27T14:01:02.751Z,40.98
2022-07-27T14:02:01.999Z,40.42
2022-07-27T14:02:59.896Z,42.39
2022-07-27T14:03:59.855Z,43.59
2022-07-27T14:04:59.804Z,41.30
2022-07-27T14:05:59.817Z,40.90
2022-07-27T14:06:59.776Z,41.89
2022-07-27T14:07:59.840Z,41.20
2022-07-27T14:08:59.764Z,43.37
2022-07-27T14:09:59.735Z,45.93
2022-07-27T14:11:02.737Z,44.42
2022-07-27T14:12:24.808Z,43.08
2022-07-27T14:12:59.745Z,41.97
2022-07-27T14:13:59.740Z,42.15
2022-07-27T14:14:59.734Z,43.14
2022-07-27T14:15:59.750Z,40.76
2022-07-27T14:16:59.720Z,39.28
2022-07-27T14:17:59.666Z,39.17
2022-07-27T14:18:59.748Z,39.19
2022-07-27T14:19:59.676Z,43.10
2022-07-27T14:20:59.731Z,42.99
2022-07-27T14:21:59.634Z,42.27
2022-07-27T14:22:59.679Z,40.05
2022-07-27T14:23:59.661Z,41.69
2022-07-27T14:24:59.640Z,37.83
2022-07-27T14:25:59.601Z,41.28
2022-07-27T14:27:06.095Z,40.94
2022-07-27T14:28:00.772Z,37.76
2022-07-27T14:28:59.676Z,35.60
2022-07-27T14:29:59.559Z,39.56
2022-07-27T14:30:59.575Z,37.18
2022-07-27T14:31:59.635Z,37.68
2022-07-27T14:32:59.518Z,36.77
2022-07-27T14:34:02.009Z,36.57
2022-07-27T14:35:23.495Z,37.64
2022-07-27T14:37:22.194Z,37.80
2022-07-27T14:37:23.694Z,34.28
2022-07-27T14:38:25.166Z,36.71
2022-07-27T14:39:25.705Z,39.50
2022-07-27T14:40:23.688Z,39.08
2022-07-27T14:41:26.535Z,38.67
2022-07-27T14:42:24.721Z,37.48
2022-07-27T14:43:23.658Z,39.06
2022-07-27T14:51:59.202Z,37.34
2022-07-27T14:53:36.644Z,36.49
2022-07-27T14:54:51.113Z,37.46
2022-07-27T14:57:34.865Z,35.96
2022-07-27T14:59:55.353Z,36.83
2022-07-27T15:01:08.180Z,36.75
2022-07-27T15:01:52.612Z,36.25
2022-07-27T15:03:23.606Z,37.96
2022-07-27T15:03:52.625Z,39.34
2022-07-27T15:05:35.059Z,37.18
2022-07-27T15:06:17.996Z,36.29
2022-07-27T15:06:58.166Z,36.51
2022-07-27T15:07:58.151Z,37.20
2022-07-27T15:08:53.387Z,36.86
2022-07-27T15:09:52.339Z,37.21
2022-07-27T15:10:54.006Z,39.53
2022-07-27T15:11:52.558Z,39.35
2022-07-27T15:13:18.674Z,39.95
2022-07-27T15:13:53.328Z,39.92
2022-07-27T15:15:02.065Z,39.33
2022-07-27T15:16:07.857Z,38.24
2022-07-27T15:16:52.317Z,38.73
2022-07-27T15:17:52.251Z,38.14
2022-07-27T15:18:52.253Z,39.92
2022-07-27T15:19:52.240Z,38.71
2022-07-27T15:20:52.221Z,38.78
2022-07-27T15:21:52.206Z,36.30
2022-07-27T15:22:52.223Z,36.58
2022-07-27T15:23:52.204Z,36.26
2022-07-27T15:24:52.203Z,35.17
2022-07-27T15:25:52.166Z,33.72
2022-07-27T15:26:52.176Z,37.11
2022-07-27T15:27:52.153Z,38.20
2022-07-27T15:28:52.204Z,38.10
2022-07-27T15:29:52.185Z,36.99
2022-07-27T15:30:52.120Z,36.40
2022-07-27T15:31:52.169Z,36.58
2022-07-27T15:32:52.138Z,36.88
2022-07-27T15:33:52.098Z,34.80
2022-07-27T15:34:52.074Z,36.38
2022-07-27T15:35:52.074Z,35.09
2022-07-27T15:36:52.471Z,37.19
2022-07-27T15:37:54.101Z,36.28
2022-07-27T15:38:52.080Z,36.69
2022-07-27T15:39:52.024Z,37.69
2022-07-27T15:40:52.028Z,38.70
2022-07-27T15:41:52.000Z,37.70
2022-07-27T15:42:52.016Z,36.22
2022-07-27T15:43:51.999Z,37.90
2022-07-27T15:44:51.973Z,39.19
2022-07-27T15:45:51.974Z,38.20
2022-07-27T15:46:52.017Z,38.10
2022-07-27T15:47:52.824Z,37.82
2022-07-27T15:48:52.009Z,38.81
2022-07-27T15:49:51.925Z,39.09
2022-07-27T15:50:51.928Z,37.41
2022-07-27T15:51:51.909Z,37.52
2022-07-27T15:52:51.891Z,39.11
2022-07-27T15:53:51.894Z,38.42
2022-07-27T15:54:51.883Z,37.62
2022-07-27T15:55:51.859Z,38.93
2022-07-27T15:56:51.862Z,37.92
2022-07-27T15:57:51.836Z,38.34
2022-07-27T15:58:51.850Z,37.66
2022-07-27T15:59:51.813Z,38.24
2022-07-27T16:00:51.830Z,39.11
2022-07-27T16:01:51.815Z,38.24
2022-07-27T16:02:51.806Z,38.24
2022-07-27T16:03:51.836Z,39.73
2022-07-27T16:04:51.772Z,38.93
2022-07-27T16:05:51.766Z,39.03
2022-07-27T16:06:51.759Z,38.04
2022-07-27T16:07:51.752Z,36.75
2022-07-27T16:08:51.746Z,38.73
2022-07-27T16:09:51.728Z,38.73
2022-07-27T16:10:51.718Z,36.65
2022-07-27T16:11:51.700Z,38.95
2022-07-27T16:12:51.696Z,38.45
2022-07-27T16:13:51.701Z,38.45
2022-07-27T16:14:51.663Z,39.75
2022-07-27T16:15:51.749Z,38.16
2022-07-27T16:16:51.648Z,38.95
2022-07-27T16:17:51.632Z,39.15
2022-07-27T16:18:51.642Z,38.26
2022-07-27T16:19:51.670Z,39.25
2022-07-27T16:20:51.597Z,38.95
2022-07-27T16:21:53.912Z,39.27
2022-07-27T16:22:51.574Z,39.47
2022-07-27T16:23:51.612Z,38.07
2022-07-27T16:24:51.553Z,39.48
2022-07-27T16:26:05.440Z,39.18
2022-07-27T16:26:52.543Z,39.78
2022-07-27T16:27:51.526Z,40.22
2022-07-27T16:28:51.528Z,40.74
2022-07-27T16:29:51.569Z,39.44
2022-07-27T16:30:51.505Z,41.06
2022-07-27T16:31:51.625Z,40.26
2022-07-27T16:32:51.473Z,40.36
2022-07-27T16:33:54.833Z,41.88
2022-07-27T16:34:51.467Z,42.35
2022-07-27T16:35:51.447Z,41.77
2022-07-27T16:36:51.420Z,41.67
2022-07-27T16:37:51.417Z,41.89
2022-07-27T16:38:51.430Z,40.92
2022-07-27T16:39:51.391Z,41.11
2022-07-27T16:40:51.391Z,41.31
2022-07-27T16:41:51.378Z,40.81
2022-07-27T16:42:51.358Z,42.24
2022-07-27T16:43:51.401Z,42.51
2022-07-27T16:44:51.340Z,43.01
2022-07-27T16:45:51.333Z,42.21
2022-07-27T16:46:51.364Z,42.02
2022-07-27T16:47:51.315Z,41.63
2022-07-27T16:48:52.112Z,42.24
2022-07-27T16:49:51.409Z,43.33
2022-07-27T16:50:51.318Z,41.83
2022-07-27T16:51:51.275Z,42.54
2022-07-27T16:52:51.264Z,41.41
2022-07-27T16:53:51.278Z,41.71
2022-07-27T16:54:51.237Z,40.72
2022-07-27T16:55:51.235Z,41.71
2022-07-27T16:56:51.225Z,41.71
2022-07-27T16:57:51.216Z,42.02
2022-07-27T16:58:51.218Z,42.02
2022-07-27T16:59:51.189Z,42.91
2022-07-27T17:00:51.174Z,42.49
2022-07-27T17:01:51.209Z,42.19
2022-07-27T17:02:51.150Z,43.71
2022-07-27T17:03:51.181Z,42.69
2022-07-27T17:04:51.175Z,39.50
2022-07-27T17:05:51.128Z,40.42
2022-07-27T17:06:51.117Z,41.11
2022-07-27T17:07:51.105Z,41.31
2022-07-27T17:08:51.109Z,41.82
2022-07-27T17:09:51.082Z,39.32
2022-07-27T17:10:51.071Z,41.39
2022-07-27T17:11:51.061Z,42.19
2022-07-27T17:12:51.043Z,41.02
2022-07-27T17:13:51.036Z,40.01
2022-07-27T17:14:52.033Z,41.31
2022-07-27T17:15:51.081Z,40.22
2022-07-27T17:16:52.269Z,41.30
2022-07-27T17:17:50.998Z,40.80
2022-07-27T17:18:50.987Z,40.30
2022-07-27T17:19:50.983Z,40.92
2022-07-27T17:20:50.963Z,40.00
2022-07-27T17:21:50.953Z,40.52
2022-07-27T17:22:50.935Z,41.02
2022-07-27T17:23:50.932Z,40.42
2022-07-27T17:24:50.927Z,41.30
2022-07-27T17:25:50.909Z,40.32
2022-07-27T17:26:50.902Z,42.24
2022-07-27T17:27:50.888Z,42.24
2022-07-27T17:28:50.882Z,41.91
2022-07-27T17:29:50.886Z,41.91
2022-07-27T17:30:50.924Z,41.82
2022-07-27T17:31:50.847Z,41.71
2022-07-27T17:32:50.844Z,41.52
2022-07-27T17:33:50.832Z,42.21
2022-07-27T17:34:50.839Z,42.51
2022-07-27T17:35:50.810Z,39.72
2022-07-27T17:36:50.797Z,40.62
2022-07-27T17:38:05.518Z,40.92
2022-07-27T17:38:51.773Z,40.81
2022-07-27T17:39:50.786Z,41.53
2022-07-27T17:40:50.755Z,40.83
2022-07-27T17:41:50.747Z,40.83
2022-07-27T17:42:50.736Z,40.94
2022-07-27T17:43:50.777Z,41.93
2022-07-27T17:44:50.746Z,42.05
2022-07-27T17:45:50.859Z,40.86
2022-07-27T17:46:57.798Z,40.66
2022-07-27T17:47:50.684Z,42.65
2022-07-27T17:48:50.772Z,41.67
2022-07-27T17:49:50.693Z,41.17
2022-07-27T17:50:50.651Z,43.27
2022-07-27T17:51:50.640Z,42.47
2022-07-27T17:52:50.635Z,42.77
2022-07-27T17:53:50.622Z,40.88
2022-07-27T17:54:50.659Z,42.47
2022-07-27T17:55:50.601Z,41.89
2022-07-27T17:56:50.589Z,42.87
2022-07-27T17:57:50.582Z,42.79
2022-07-27T17:58:50.567Z,42.60
2022-07-27T17:59:50.553Z,43.59
2022-07-27T18:00:50.584Z,42.60
2022-07-27T18:01:50.616Z,42.69
2022-07-27T18:02:50.579Z,42.10
2022-07-27T18:03:50.553Z,42.91
2022-07-27T18:04:51.803Z,43.82
2022-07-27T18:05:51.721Z,44.32
2022-07-27T18:06:51.625Z,43.21
2022-07-27T18:07:51.650Z,41.93
2022-07-27T18:08:51.748Z,43.93
2022-07-27T18:09:51.640Z,43.74
2022-07-27T18:10:51.681Z,43.43
2022-07-27T18:11:51.616Z,42.55
2022-07-27T18:12:51.659Z,44.26
2022-07-27T18:13:51.566Z,43.46
2022-07-27T18:14:51.589Z,44.16
2022-07-27T18:15:51.626Z,44.26
2022-07-27T18:16:51.548Z,45.06
2022-07-27T18:17:51.526Z,44.66
2022-07-27T18:18:51.539Z,43.85
2022-07-27T18:19:51.538Z,44.28
2022-07-27T18:20:51.513Z,43.66
2022-07-27T18:21:52.160Z,44.88
2022-07-27T18:22:53.163Z,45.08
2022-07-27T18:23:51.501Z,45.18
2022-07-27T18:24:52.592Z,44.18
2022-07-27T18:25:51.523Z,44.78
2022-07-27T18:26:51.476Z,45.18
2022-07-27T18:27:51.480Z,45.50
2022-07-27T18:28:51.465Z,44.50
2022-07-27T18:29:51.419Z,45.70
2022-07-27T18:30:51.484Z,45.70
2022-07-27T18:31:51.402Z,46.81
2022-07-27T18:32:51.395Z,46.41
2022-07-27T18:33:51.405Z,47.33
2022-07-27T18:34:51.410Z,47.53
2022-07-27T18:35:51.409Z,47.43
2022-07-27T18:36:51.334Z,47.23
2022-07-27T18:37:51.362Z,48.33
2022-07-27T18:38:51.316Z,48.93
2022-07-27T18:39:51.332Z,48.83
2022-07-27T18:40:51.339Z,48.75
2022-07-27T18:41:51.322Z,48.75
2022-07-27T18:42:51.294Z,48.25
2022-07-27T18:43:51.315Z,48.98
2022-07-27T18:44:51.292Z,48.58
2022-07-27T18:45:51.320Z,48.78
2022-07-27T18:46:51.300Z,48.78